Time;durP1;ratioP1;P1;durP2;ratioP2;P2;SDS_P1;SDS_P2;PMS_P1;PMS_P2;Temp;Humidity;BMP_temperature;BMP_pressure;BME280_temperature;BME280_humidity;BME280_pressure;Samples;Min_cycle;Max_cycle;Signal;HPM_P1;HPM_P2
2023/04/18 00:01:32;;;;;;;29.40;21.60;;;;;;;6.73;100.00;102113.94;7397601;19;20011;-68
2023/04/18 00:04:00;;;;;;;27.58;20.63;;;;;;;6.73;100.00;102113.06;7396060;19;20022;-67
2023/04/18 00:06:29;;;;;;;29.50;21.60;;;;;;;6.74;100.00;102117.44;7397192;19;20016;-67
2023/04/18 00:08:57;;;;;;;27.83;20.67;;;;;;;6.71;100.00;102114.75;7395584;19;20042;-68
2023/04/18 00:11:26;;;;;;;30.15;21.50;;;;;;;6.70;100.00;102116.50;7397018;19;20015;-68
2023/04/18 00:13:56;;;;;;;30.85;22.65;;;;;;;6.67;100.00;102122.56;7395402;19;20536;-67
2023/04/18 00:16:27;;;;;;;27.33;20.88;;;;;;;6.64;100.00;102122.47;7396854;19;20026;-68
2023/04/18 00:18:56;;;;;;;26.48;19.85;;;;;;;6.63;100.00;102115.50;7397210;19;20015;-68
2023/04/18 00:21:25;;;;;;;31.13;21.27;;;;;;;6.62;100.00;102116.38;7396531;19;20035;-68
2023/04/18 00:23:53;;;;;;;31.15;22.02;;;;;;;6.60;100.00;102115.47;7394830;19;20006;-68
2023/04/18 00:26:22;;;;;;;27.27;21.05;;;;;;;6.58;100.00;102119.78;7396528;19;20077;-68
2023/04/18 00:28:50;;;;;;;30.83;20.15;;;;;;;6.57;100.00;102119.75;7394624;19;20066;-67
2023/04/18 00:31:18;;;;;;;30.17;20.33;;;;;;;6.58;100.00;102118.91;7395568;19;20081;-70
2023/04/18 00:33:50;;;;;;;27.73;20.17;;;;;;;6.57;100.00;102122.34;7395024;19;20074;-69
2023/04/18 00:36:18;;;;;;;27.33;20.25;;;;;;;6.56;100.00;102121.50;7396709;19;20020;-67
2023/04/18 00:38:46;;;;;;;28.52;20.10;;;;;;;6.55;100.00;102124.94;7395837;19;20077;-67
2023/04/18 00:41:15;;;;;;;27.02;20.13;;;;;;;6.53;100.00;102121.41;7395780;19;20378;-67
2023/04/18 00:43:43;;;;;;;31.08;21.13;;;;;;;6.50;100.00;102124.84;7395146;19;20028;-67
2023/04/18 00:46:12;;;;;;;26.88;19.48;;;;;;;6.49;100.00;102124.84;7395998;19;20082;-67
2023/04/18 00:48:41;;;;;;;26.27;18.58;;;;;;;6.48;100.00;102116.16;7394672;19;20014;-67
2023/04/18 00:51:13;;;;;;;26.30;19.73;;;;;;;6.48;100.00;102121.38;7395807;19;20010;-67
2023/04/18 00:53:43;;;;;;;26.90;19.08;;;;;;;6.48;100.00;102128.28;7395019;19;20025;-67
2023/04/18 00:56:11;;;;;;;27.77;19.38;;;;;;;6.46;100.00;102125.66;7395659;19;20014;-67
2023/04/18 00:58:40;;;;;;;25.58;18.85;;;;;;;6.45;100.00;102118.69;7395682;19;20018;-67
2023/04/18 01:01:09;;;;;;;24.52;18.05;;;;;;;6.43;100.00;102124.72;7396173;19;20036;-67
2023/04/18 01:03:39;;;;;;;25.48;18.98;;;;;;;6.41;100.00;102121.19;7394804;19;20486;-68
2023/04/18 01:06:08;;;;;;;25.88;19.10;;;;;;;6.40;100.00;102122.06;7396047;19;20020;-67
2023/04/18 01:08:39;;;;;;;26.15;18.88;;;;;;;6.40;100.00;102111.66;7394672;19;20074;-67
2023/04/18 01:11:07;;;;;;;24.67;18.45;;;;;;;6.39;100.00;102115.97;7395735;19;20081;-67
2023/04/18 01:13:36;;;;;;;26.52;19.08;;;;;;;6.38;100.00;102113.34;7393407;19;20019;-67
2023/04/18 01:16:04;;;;;;;25.23;18.25;;;;;;;6.36;100.00;102115.94;7393400;19;20022;-67
2023/04/18 01:18:33;;;;;;;24.92;18.00;;;;;;;6.36;100.00;102118.53;7394748;19;20021;-67
2023/04/18 01:21:04;;;;;;;24.77;16.83;;;;;;;6.33;100.00;102121.97;7395104;19;20011;-66
2023/04/18 01:23:33;;;;;;;22.13;17.45;;;;;;;6.34;100.00;102125.44;7393113;19;20374;-67
2023/04/18 01:26:04;;;;;;;28.73;17.83;;;;;;;6.33;100.00;102124.56;7394495;19;20489;-67
2023/04/18 01:28:33;;;;;;;26.00;18.70;;;;;;;6.32;100.00;102133.25;7392656;19;20021;-67
2023/04/18 01:31:01;;;;;;;23.15;17.90;;;;;;;6.32;100.00;102133.25;7394786;19;20022;-67
2023/04/18 01:33:29;;;;;;;25.77;17.63;;;;;;;6.31;100.00;102128.88;7393759;19;20074;-67
2023/04/18 01:35:58;;;;;;;24.98;17.48;;;;;;;6.31;100.00;102125.41;7394633;19;20029;-67
2023/04/18 01:38:26;;;;;;;22.52;16.75;;;;;;;6.30;100.00;102129.72;7394714;19;20018;-67
2023/04/18 01:40:55;;;;;;;25.75;17.92;;;;;;;6.30;100.00;102123.63;7394119;19;20017;-67
2023/04/18 01:43:26;;;;;;;20.90;16.00;;;;;;;6.28;100.00;102123.63;7394604;19;20568;-67
2023/04/18 01:45:54;;;;;;;24.70;16.38;;;;;;;6.28;100.00;102120.09;7402435;19;20011;-66
2023/04/18 01:48:22;;;;;;;20.58;15.57;;;;;;;6.26;100.00;102122.69;7400699;19;20042;-66
2023/04/18 01:50:51;;;;;;;23.55;17.02;;;;;;;6.27;100.00;102126.16;7401765;19;20022;-66
2023/04/18 01:53:20;;;;;;;21.40;15.93;;;;;;;6.24;100.00;102127.00;7400281;19;20019;-66
2023/04/18 01:55:51;;;;;;;24.13;16.88;;;;;;;6.23;100.00;102125.25;7401596;19;20022;-66
2023/04/18 01:58:22;;;;;;;22.30;15.82;;;;;;;6.21;100.00;102128.69;7401958;19;20074;-66
2023/04/18 02:00:56;;;;;;;22.10;15.95;;;;;;;6.19;100.00;102123.44;7401898;19;20015;-66
2023/04/18 02:03:24;;;;;;;24.63;17.65;;;;;;;6.18;100.00;102124.31;7400085;19;20508;-66
2023/04/18 02:05:53;;;;;;;23.75;16.50;;;;;;;6.17;100.00;102126.00;7401303;19;20026;-67
2023/04/18 02:08:21;;;;;;;25.45;17.05;;;;;;;6.18;100.00;102119.94;7400170;19;20018;-67
2023/04/18 02:10:50;;;;;;;23.67;16.63;;;;;;;6.19;100.00;102126.03;7401060;19;20029;-67
2023/04/18 02:13:18;;;;;;;25.67;16.60;;;;;;;6.18;100.00;102121.69;7398150;19;20022;-67
2023/04/18 02:15:47;;;;;;;22.95;15.88;;;;;;;6.19;100.00;102123.44;7400357;19;20014;-67
2023/04/18 02:18:18;;;;;;;24.83;16.88;;;;;;;6.18;100.00;102117.34;7401524;19;20027;-67
2023/04/18 02:20:47;;;;;;;23.95;16.60;;;;;;;6.18;100.00;102124.31;7400787;19;20046;-67
2023/04/18 02:23:16;;;;;;;23.48;15.57;;;;;;;6.17;100.00;102118.19;7400525;19;20385;-67
2023/04/18 02:25:44;;;;;;;23.50;16.20;;;;;;;6.16;100.00;102115.56;7401243;19;20011;-68
2023/04/18 02:28:13;;;;;;;24.13;16.48;;;;;;;6.14;100.00;102125.06;7399522;19;20014;-67
2023/04/18 02:30:41;;;;;;;22.52;15.75;;;;;;;6.10;100.00;102120.66;7397911;19;20015;-67
2023/04/18 02:33:09;;;;;;;25.90;16.08;;;;;;;6.08;100.00;102120.63;7399375;19;20022;-67
2023/04/18 02:35:42;;;;;;;22.02;15.68;;;;;;;6.06;100.00;102113.63;7399727;19;20021;-67
2023/04/18 02:38:10;;;;;;;23.73;16.55;;;;;;;6.04;100.00;102116.22;7397247;19;20059;-67
2023/04/18 02:40:39;;;;;;;23.85;17.02;;;;;;;6.03;100.00;102120.53;7399851;19;20018;-67
2023/04/18 02:43:07;;;;;;;20.77;16.30;;;;;;;6.02;100.00;102123.13;7399381;19;20014;-67
2023/04/18 02:45:35;;;;;;;22.65;16.92;;;;;;;6.00;100.00;102124.81;7399977;19;20015;-67
2023/04/18 02:48:04;;;;;;;23.50;16.30;;;;;;;5.98;100.00;102122.19;7399478;19;20074;-67
2023/04/18 02:50:34;;;;;;;21.90;15.90;;;;;;;5.96;100.00;102122.97;7397056;19;20007;-67
2023/04/18 02:53:05;;;;;;;23.85;16.00;;;;;;;5.97;100.00;102119.53;7398761;19;20498;-67
2023/04/18 02:55:33;;;;;;;23.92;16.23;;;;;;;5.96;100.00;102121.22;7399990;19;20017;-67
2023/04/18 02:58:02;;;;;;;23.58;16.00;;;;;;;5.94;100.00;102114.22;7399641;19;20018;-67
2023/04/18 03:00:30;;;;;;;23.80;16.17;;;;;;;5.90;100.00;102122.84;7399405;19;20029;-73
2023/04/18 03:02:59;;;;;;;24.88;16.83;;;;;;;5.91;100.00;102129.81;7398785;19;20025;-68
2023/04/18 03:05:27;;;;;;;20.00;16.13;;;;;;;5.87;100.00;102127.13;7398790;19;20028;-68
2023/04/18 03:07:56;;;;;;;23.15;15.98;;;;;;;5.88;100.00;102125.44;7398535;19;20377;-68
2023/04/18 03:10:27;;;;;;;21.48;15.77;;;;;;;5.85;100.00;102127.94;7398990;19;20035;-69
2023/04/18 03:12:55;;;;;;;24.35;16.02;;;;;;;5.83;100.00;102127.06;7397214;19;20018;-68
2023/04/18 03:15:24;;;;;;;21.90;15.88;;;;;;;5.78;98.79;102126.97;7399011;19;20031;-68
2023/04/18 03:17:52;;;;;;;23.30;15.80;;;;;;;5.76;99.71;102125.16;7398493;19;20010;-68
2023/04/18 03:20:21;;;;;;;24.10;16.90;;;;;;;5.72;99.06;102121.63;7398542;19;20018;-68
2023/04/18 03:22:50;;;;;;;22.20;15.35;;;;;;;5.68;99.30;102125.88;7397559;19;20031;-68
2023/04/18 03:25:18;;;;;;;22.88;16.20;;;;;;;5.68;100.00;102127.63;7398734;19;20018;-68
2023/04/18 03:27:50;;;;;;;22.95;16.23;;;;;;;5.66;99.50;102134.50;7398494;19;20032;-68
2023/04/18 03:30:19;;;;;;;24.50;16.42;;;;;;;5.64;99.01;102136.22;7396383;19;20449;-68
2023/04/18 03:32:47;;;;;;;22.83;17.00;;;;;;;5.61;99.51;102131.84;7398144;19;20028;-68
2023/04/18 03:35:16;;;;;;;23.52;16.42;;;;;;;5.59;99.86;102130.03;7398301;19;20024;-68
2023/04/18 03:37:45;;;;;;;22.98;16.75;;;;;;;5.59;99.78;102130.03;7398205;19;20082;-68
2023/04/18 03:40:14;;;;;;;23.50;16.58;;;;;;;5.57;98.99;102127.38;7397994;19;20035;-68
2023/04/18 03:42:42;;;;;;;22.83;15.38;;;;;;;5.54;99.25;102132.53;7397362;19;20477;-68
2023/04/18 03:45:13;;;;;;;22.27;15.23;;;;;;;5.51;99.58;102135.06;7397260;19;20014;-68
2023/04/18 03:47:42;;;;;;;22.58;15.88;;;;;;;5.49;98.70;102132.44;7398132;19;20379;-68
2023/04/18 03:50:11;;;;;;;24.42;16.15;;;;;;;5.45;99.21;102130.63;7395557;19;20509;-68
2023/04/18 03:52:40;;;;;;;21.05;15.10;;;;;;;5.43;98.19;102140.09;7397029;19;20031;-68
2023/04/18 03:55:10;;;;;;;21.92;15.38;;;;;;;5.41;98.56;102136.59;7397634;19;20018;-70
2023/04/18 03:57:38;;;;;;;19.90;14.43;;;;;;;5.39;97.79;102146.09;7397563;19;20022;-69
2023/04/18 04:00:09;;;;;;;24.40;16.55;;;;;;;5.38;98.68;102134.81;7395360;19;20023;-69
2023/04/18 04:02:40;;;;;;;20.20;14.85;;;;;;;5.37;98.54;102138.25;7397432;19;20025;-69
2023/04/18 04:05:09;;;;;;;24.88;16.27;;;;;;;5.36;98.48;102139.09;7397355;19;20018;-69
2023/04/18 04:07:38;;;;;;;21.13;15.15;;;;;;;5.35;97.66;102142.53;7393686;19;20020;-69
2023/04/18 04:10:07;;;;;;;23.05;15.50;;;;;;;5.34;98.31;102145.97;7395239;19;20505;-69
2023/04/18 04:12:36;;;;;;;23.95;15.95;;;;;;;5.33;97.98;102149.44;7396252;19;20386;-69
2023/04/18 04:15:04;;;;;;;24.17;16.38;;;;;;;5.34;98.85;102150.31;7396899;19;20010;-69
2023/04/18 04:17:33;;;;;;;21.25;16.40;;;;;;;5.33;98.10;102153.75;7396313;19;20365;-69
2023/04/18 04:20:06;;;;;;;23.70;16.42;;;;;;;5.30;97.44;102162.38;7396613;19;20086;-68
2023/04/18 04:22:35;;;;;;;23.77;16.45;;;;;;;5.31;98.62;102156.34;7395712;19;20343;-68
2023/04/18 04:25:03;;;;;;;20.80;14.75;;;;;;;5.31;97.53;102158.06;7396635;19;20015;-69
2023/04/18 04:27:32;;;;;;;24.80;17.20;;;;;;;5.29;97.26;102168.41;7396395;19;20035;-68
2023/04/18 04:30:01;;;;;;;21.52;15.25;;;;;;;5.28;97.94;102164.09;7394900;19;20010;-68
2023/04/18 04:32:29;;;;;;;22.05;15.73;;;;;;;5.26;97.33;102165.75;7395966;19;20018;-68
2023/04/18 04:34:58;;;;;;;21.27;15.85;;;;;;;5.28;97.78;102176.19;7396431;19;20027;-69
2023/04/18 04:37:29;;;;;;;23.20;16.08;;;;;;;5.26;96.91;102180.47;7396060;19;20015;-69
2023/04/18 04:39:59;;;;;;;21.42;14.30;;;;;;;5.25;97.47;102171.81;7396129;19;20018;-69
2023/04/18 04:42:28;;;;;;;18.65;13.60;;;;;;;5.25;96.58;102179.63;7395939;19;20391;-69
2023/04/18 04:44:56;;;;;;;23.00;15.35;;;;;;;5.26;97.26;102172.66;7395274;19;20014;-69
2023/04/18 04:47:25;;;;;;;21.58;15.55;;;;;;;5.25;97.10;102182.22;7395397;19;20015;-69
2023/04/18 04:49:53;;;;;;;20.83;14.65;;;;;;;5.25;96.64;102171.81;7394597;19;20031;-68
2023/04/18 04:52:22;;;;;;;20.50;13.95;;;;;;;5.25;96.55;102166.59;7395122;19;20094;-70
2023/04/18 04:54:53;;;;;;;20.88;15.13;;;;;;;5.22;95.11;102170.00;7393379;19;20089;-69
2023/04/18 04:57:22;;;;;;;20.45;14.50;;;;;;;5.23;95.31;102173.47;7395209;19;20494;-69
2023/04/18 04:59:57;;;;;;;20.30;14.45;;;;;;;5.23;96.97;102178.69;7395220;19;20039;-69
2023/04/18 05:02:26;;;;;;;19.85;14.57;;;;;;;5.25;96.65;102171.81;7393686;19;20082;-69
2023/04/18 05:04:54;;;;;;;22.50;15.25;;;;;;;5.25;95.85;102178.75;7395228;19;20018;-69
2023/04/18 05:07:23;;;;;;;21.55;14.13;;;;;;;5.26;95.79;102178.78;7393479;19;20086;-69
2023/04/18 05:09:54;;;;;;;19.58;14.50;;;;;;;5.23;95.35;102178.69;7392923;19;20482;-69
2023/04/18 05:12:23;;;;;;;19.42;14.68;;;;;;;5.23;96.21;102181.28;7395196;19;20026;-69
2023/04/18 05:14:58;;;;;;;17.42;13.73;;;;;;;5.23;95.51;102186.50;7392458;19;20015;-69
2023/04/18 05:17:26;;;;;;;20.35;14.10;;;;;;;5.22;95.70;102183.03;7393970;19;20530;-69
2023/04/18 05:19:55;;;;;;;20.48;14.05;;;;;;;5.20;95.00;102189.03;7399621;19;20138;-69
2023/04/18 05:22:23;;;;;;;20.92;14.25;;;;;;;5.21;94.74;102191.66;7400249;19;20070;-69
2023/04/18 05:25:01;;;;;;;19.65;14.43;;;;;;;5.20;94.96;102191.63;7397665;19;20014;-68
2023/04/18 05:27:30;;;;;;;21.88;15.23;;;;;;;5.21;95.63;102189.06;7401869;19;20027;-68
2023/04/18 05:29:58;;;;;;;21.70;15.35;;;;;;;5.21;94.76;102189.06;7400489;19;20028;-68
2023/04/18 05:32:27;;;;;;;19.05;14.32;;;;;;;5.21;94.35;102183.84;7397214;19;20384;-68
2023/04/18 05:34:55;;;;;;;22.95;15.25;;;;;;;5.22;95.23;102180.41;7401253;19;20463;-68
2023/04/18 05:37:24;;;;;;;20.27;14.35;;;;;;;5.25;94.83;102191.75;7398687;19;20026;-68
2023/04/18 05:39:52;;;;;;;21.33;15.07;;;;;;;5.26;94.52;102186.59;7401659;19;20042;-68
2023/04/18 05:42:23;;;;;;;20.85;14.70;;;;;;;5.26;94.82;102189.19;7401640;19;20015;-69
2023/04/18 05:44:52;;;;;;;22.88;15.20;;;;;;;5.28;94.55;102189.22;7398335;19;20076;-68
2023/04/18 05:47:20;;;;;;;18.35;14.05;;;;;;;5.31;95.13;102195.38;7398597;19;20090;-68
2023/04/18 05:49:49;;;;;;;23.08;15.05;;;;;;;5.34;95.38;102192.81;7399510;19;20506;-68
2023/04/18 05:52:17;;;;;;;22.23;14.10;;;;;;;5.39;94.77;102193.81;7401499;19;20107;-68
2023/04/18 05:54:45;;;;;;;19.25;14.52;;;;;;;5.43;94.54;102193.91;7398516;19;20086;-68
2023/04/18 05:57:14;;;;;;;20.45;13.95;;;;;;;5.47;94.80;102190.50;7401316;19;20015;-68
2023/04/18 05:59:45;;;;;;;22.02;15.70;;;;;;;5.50;94.41;102186.25;7400561;19;20028;-68
2023/04/18 06:02:14;;;;;;;19.45;14.07;;;;;;;5.53;94.47;102191.56;7401578;19;20015;-68
2023/04/18 06:04:44;;;;;;;19.38;14.63;;;;;;;5.59;93.97;102196.00;7398433;19;20019;-68
2023/04/18 06:07:12;;;;;;;19.17;13.68;;;;;;;5.62;93.61;102201.25;7400577;19;20063;-69
2023/04/18 06:09:41;;;;;;;17.13;13.20;;;;;;;5.66;94.16;102203.09;7399849;19;20035;-68
2023/04/18 06:12:09;;;;;;;19.58;14.05;;;;;;;5.70;94.13;102199.72;7398325;19;20026;-69
2023/04/18 06:14:38;;;;;;;19.73;13.98;;;;;;;5.76;93.79;102198.09;7398283;19;20019;-69
2023/04/18 06:17:11;;;;;;;17.05;13.15;;;;;;;5.81;94.13;102204.28;7400519;19;20027;-68
2023/04/18 06:19:40;;;;;;;19.83;13.73;;;;;;;5.85;93.90;102204.38;7400996;19;20041;-68
2023/04/18 06:22:09;;;;;;;18.48;13.65;;;;;;;5.91;92.65;102213.16;7399664;19;20028;-69
2023/04/18 06:24:38;;;;;;;18.83;13.10;;;;;;;5.93;92.38;102201.94;7396763;19;20027;-68
2023/04/18 06:27:07;;;;;;;16.67;13.48;;;;;;;5.97;92.49;102208.97;7400256;19;20019;-70
2023/04/18 06:29:36;;;;;;;17.90;12.73;;;;;;;6.01;92.29;102210.81;7398832;19;20060;-68
2023/04/18 06:32:06;;;;;;;18.27;13.15;;;;;;;6.05;92.03;102213.50;7399852;19;20494;-68
2023/04/18 06:34:37;;;;;;;18.00;13.25;;;;;;;6.08;91.79;102213.53;7397239;19;20022;-69
2023/04/18 06:37:05;;;;;;;15.18;12.85;;;;;;;6.12;92.09;102211.03;7400276;19;20015;-69
2023/04/18 06:39:34;;;;;;;16.73;13.75;;;;;;;6.18;92.37;102215.50;7399899;19;20041;-70
2023/04/18 06:42:03;;;;;;;19.50;13.27;;;;;;;6.24;91.59;102214.75;7399438;19;20014;-68
2023/04/18 06:44:34;;;;;;;19.20;13.68;;;;;;;6.30;91.34;102218.34;7397117;19;20493;-69
2023/04/18 06:47:03;;;;;;;16.08;12.23;;;;;;;6.33;90.37;102210.59;7399717;19;20343;-69
2023/04/18 06:49:31;;;;;;;18.27;13.40;;;;;;;6.38;90.41;102213.28;7398846;19;20414;-68
2023/04/18 06:52:02;;;;;;;21.55;14.20;;;;;;;6.42;90.04;102212.50;7399061;19;20382;-69
2023/04/18 06:54:31;;;;;;;19.33;13.45;;;;;;;6.50;90.47;102210.03;7397681;19;20011;-69
2023/04/18 06:57:01;;;;;;;18.35;12.98;;;;;;;6.61;90.72;102213.72;7397433;19;20078;-70
2023/04/18 06:59:29;;;;;;;17.60;13.23;;;;;;;6.72;90.52;102218.25;7399222;19;20010;-69
2023/04/18 07:01:58;;;;;;;14.68;11.98;;;;;;;6.81;90.02;102210.56;7404313;19;20018;-68
2023/04/18 07:04:26;;;;;;;19.23;12.80;;;;;;;6.90;89.47;102223.78;7396908;19;20030;-70
2023/04/18 07:06:55;;;;;;;15.85;12.55;;;;;;;7.00;89.90;102222.19;7398749;19;20477;-69
2023/04/18 07:09:26;;;;;;;19.02;13.05;;;;;;;7.08;89.09;102223.22;7398109;19;20452;-71
2023/04/18 07:11:54;;;;;;;15.70;12.38;;;;;;;7.17;88.40;102215.53;7396701;19;20014;-69
2023/04/18 07:14:25;;;;;;;17.88;12.73;;;;;;;7.23;87.85;102217.38;7396727;19;20019;-69
2023/04/18 07:16:53;;;;;;;17.98;12.88;;;;;;;7.30;87.28;102227.06;7396115;19;20547;-69
2023/04/18 07:19:22;;;;;;;15.35;11.85;;;;;;;7.37;87.60;102229.75;7397806;19;20022;-68
2023/04/18 07:21:51;;;;;;;15.65;12.23;;;;;;;7.45;87.83;102225.53;7398316;19;20027;-69
2023/04/18 07:24:19;;;;;;;16.65;12.85;;;;;;;7.53;87.40;102229.13;7395408;19;20010;-68
2023/04/18 07:26:50;;;;;;;19.88;13.65;;;;;;;7.58;86.95;102226.59;7397480;19;20015;-69
2023/04/18 07:29:20;;;;;;;14.82;11.93;;;;;;;7.63;86.27;102235.38;7395900;19;20018;-70
2023/04/18 07:31:48;;;;;;;16.48;12.73;;;;;;;7.64;86.16;102232.75;7399325;19;20082;-69
2023/04/18 07:34:17;;;;;;;18.05;12.50;;;;;;;7.64;85.69;102227.53;7396095;19;20035;-69
2023/04/18 07:36:46;;;;;;;18.88;12.80;;;;;;;7.71;86.38;102225.91;7397554;19;20475;-68
2023/04/18 07:39:14;;;;;;;17.05;13.02;;;;;;;7.76;86.25;102234.69;7397506;19;20027;-69
2023/04/18 07:41:42;;;;;;;17.40;11.85;;;;;;;7.80;85.62;102235.63;7394865;19;20027;-68
2023/04/18 07:44:14;;;;;;;16.67;12.88;;;;;;;7.81;84.80;102235.63;7395774;19;20023;-68
2023/04/18 07:46:42;;;;;;;17.98;11.90;;;;;;;7.83;85.48;102236.53;7397752;19;20035;-69
2023/04/18 07:49:11;;;;;;;16.20;12.43;;;;;;;7.88;85.11;102239.19;7397546;19;20031;-68
2023/04/18 07:51:39;;;;;;;17.77;12.55;;;;;;;7.86;83.33;102240.94;7395632;19;20039;-69
2023/04/18 07:54:09;;;;;;;17.15;12.15;;;;;;;7.80;83.87;102239.09;7395882;19;20078;-69
2023/04/18 07:56:38;;;;;;;15.95;12.93;;;;;;;7.81;84.79;102240.00;7397012;19;20021;-70
2023/04/18 07:59:07;;;;;;;16.77;12.70;;;;;;;7.79;83.73;102239.06;7395401;19;20022;-68
2023/04/18 08:01:38;;;;;;;17.23;13.73;;;;;;;7.76;83.77;102228.56;7397422;19;20027;-68
2023/04/18 08:04:07;;;;;;;17.33;13.05;;;;;;;7.77;84.60;102228.63;7395884;19;20086;-68
2023/04/18 08:06:36;;;;;;;16.98;13.10;;;;;;;7.76;83.54;102226.84;7396499;19;20078;-68
2023/04/18 08:09:05;;;;;;;16.05;12.60;;;;;;;7.75;83.78;102235.53;7396217;19;20489;-68
2023/04/18 08:11:34;;;;;;;19.73;14.30;;;;;;;7.76;83.51;102239.91;7394927;19;20011;-68
2023/04/18 08:14:03;;;;;;;18.52;13.07;;;;;;;7.74;82.85;102236.41;7394694;19;20018;-67
2023/04/18 08:16:31;;;;;;;19.67;14.00;;;;;;;7.75;84.70;102238.16;7396870;19;20015;-68
2023/04/18 08:19:02;;;;;;;18.15;13.25;;;;;;;7.77;83.06;102241.69;7396689;19;20086;-68
2023/04/18 08:21:31;;;;;;;17.52;13.02;;;;;;;7.77;83.68;102239.06;7394579;19;20031;-69
2023/04/18 08:23:59;;;;;;;17.23;13.65;;;;;;;7.77;84.12;102239.06;7394102;19;20031;-68
2023/04/18 08:26:28;;;;;;;19.85;13.18;;;;;;;7.78;84.29;102243.41;7394487;19;20047;-68
2023/04/18 08:28:56;;;;;;;19.73;14.18;;;;;;;7.77;82.94;102246.00;7395986;19;20018;-68
2023/04/18 08:31:25;;;;;;;19.90;14.25;;;;;;;7.76;83.41;102241.63;7394641;19;20035;-69
2023/04/18 08:33:53;;;;;;;20.15;14.88;;;;;;;7.77;84.43;102238.16;7395092;19;20022;-68
2023/04/18 08:36:25;;;;;;;21.25;15.63;;;;;;;7.81;84.09;102234.75;7395203;19;20015;-69
2023/04/18 08:38:55;;;;;;;17.45;14.77;;;;;;;7.81;83.46;102234.75;7395903;19;20022;-69
2023/04/18 08:41:24;;;;;;;16.33;13.55;;;;;;;7.81;83.27;102229.53;7396050;19;20015;-69
2023/04/18 08:43:52;;;;;;;16.65;13.32;;;;;;;7.82;84.09;102242.63;7394437;19;20026;-69
2023/04/18 08:46:21;;;;;;;18.67;13.95;;;;;;;7.85;84.64;102240.88;7395868;19;20018;-68
2023/04/18 08:48:51;;;;;;;23.55;15.23;;;;;;;7.89;84.77;102246.19;7393984;19;20094;-68
2023/04/18 08:51:20;;;;;;;19.17;14.90;;;;;;;7.93;85.31;102237.53;7394104;19;20018;-69
2023/04/18 08:53:52;;;;;;;21.02;15.13;;;;;;;7.99;85.33;102234.13;7393666;19;20019;-69
2023/04/18 08:56:21;;;;;;;19.67;14.65;;;;;;;8.03;85.11;102240.28;7395917;19;20038;-69
2023/04/18 08:58:49;;;;;;;21.27;15.43;;;;;;;8.06;85.03;102233.34;7394769;19;20500;-69
2023/04/18 09:01:18;;;;;;;21.63;15.25;;;;;;;8.08;85.24;102234.22;7393614;19;20022;-67
2023/04/18 09:03:47;;;;;;;19.73;14.23;;;;;;;8.11;85.25;102234.28;7394410;19;20081;-68
2023/04/18 09:06:19;;;;;;;21.48;15.48;;;;;;;8.12;84.98;102236.00;7395456;19;20035;-67
2023/04/18 09:09:02;;;;;;;21.85;14.10;;;;;;;8.12;84.48;102230.78;7395208;19;20135;-68
2023/04/18 09:11:33;;;;;;;16.97;14.53;;;;;;;8.14;85.08;102236.91;7394397;19;20077;-68
2023/04/18 09:14:01;;;;;;;19.38;14.05;;;;;;;8.20;85.17;102233.53;7393434;19;20467;-68
2023/04/18 09:16:30;;;;;;;21.38;15.27;;;;;;;8.26;85.29;102235.31;7392913;19;20078;-67
2023/04/18 09:19:12;;;;;;;17.58;14.75;;;;;;;8.29;82.65;102237.94;7394963;19;20035;-68
2023/04/18 09:21:43;;;;;;;20.55;13.77;;;;;;;8.32;83.68;102231.03;7394598;19;20011;-68
2023/04/18 09:24:22;;;;;;;20.80;16.20;;;;;;;8.37;84.24;102231.09;7393081;19;20074;-68
2023/04/18 09:26:52;;;;;;;17.63;14.27;;;;;;;8.50;84.58;102233.88;7394462;19;20375;-68
2023/04/18 09:29:22;;;;;;;19.55;13.20;;;;;;;8.59;84.01;102226.13;7392876;19;20384;-69
2023/04/18 09:32:01;;;;;;;17.65;13.48;;;;;;;8.67;82.37;102227.09;7393929;19;20086;-69
2023/04/18 09:34:32;;;;;;;18.70;12.85;;;;;;;8.77;82.83;102228.03;7392758;19;20025;-68
2023/04/18 09:37:09;;;;;;;18.38;13.48;;;;;;;8.84;80.89;102227.22;7394098;19;20396;-68
2023/04/18 09:39:43;;;;;;;17.42;13.77;;;;;;;8.88;80.35;102230.75;7392649;19;20022;-69
2023/04/18 09:42:12;;;;;;;19.15;14.45;;;;;;;8.95;80.58;102228.22;7394710;19;20018;-69
2023/04/18 09:45:00;;;;;;;18.27;14.05;;;;;;;9.06;79.69;102225.69;7391346;19;20019;-68
2023/04/18 09:47:29;;;;;;;19.10;14.30;;;;;;;9.16;80.70;102225.75;7392261;19;20035;-68
2023/04/18 09:49:58;;;;;;;19.73;14.18;;;;;;;9.24;80.92;102232.81;7393412;19;20045;-68
2023/04/18 09:52:27;;;;;;;17.67;13.93;;;;;;;9.31;80.98;102232.88;7390953;19;20129;-68
2023/04/18 09:55:03;;;;;;;20.35;14.20;;;;;;;9.35;78.52;102230.28;7392882;19;20015;-68
2023/04/18 09:57:33;;;;;;;19.67;13.23;;;;;;;9.41;79.54;102224.19;7391039;19;20026;-68
2023/04/18 10:00:12;;;;;;;16.63;13.95;;;;;;;9.42;78.69;102220.72;7392889;19;20010;-68
2023/04/18 10:02:58;;;;;;;17.17;12.88;;;;;;;9.44;77.17;102221.63;7392879;19;20015;-68
2023/04/18 10:05:28;;;;;;;18.15;15.02;;;;;;;9.51;79.17;102225.16;7398440;19;20070;-69
2023/04/18 10:07:58;;;;;;;19.92;15.23;;;;;;;9.57;78.85;102228.66;7400773;19;20031;-69
2023/04/18 10:10:29;;;;;;;20.70;15.05;;;;;;;9.60;78.59;102214.72;7396926;19;20486;-68
2023/04/18 10:12:59;;;;;;;21.77;13.65;;;;;;;9.58;77.64;102211.22;7398081;19;20032;-68
2023/04/18 10:15:31;;;;;;;17.00;14.05;;;;;;;9.62;77.73;102226.09;7400548;19;20031;-68
2023/04/18 10:18:00;;;;;;;16.67;13.43;;;;;;;9.65;78.32;102222.59;7400406;19;20018;-68
2023/04/18 10:20:30;;;;;;;18.13;14.50;;;;;;;9.66;78.01;102225.22;7400300;19;20015;-68
2023/04/18 10:23:36;;;;;;;18.65;14.50;;;;;;;9.72;76.47;102229.66;7397100;19;20031;-68
2023/04/18 10:26:08;;;;;;;17.42;13.70;;;;;;;9.82;78.30;102225.31;7396756;19;20028;-68
2023/04/18 10:28:53;;;;;;;21.10;15.02;;;;;;;9.92;77.57;102224.47;7399056;19;20111;-69
2023/04/18 10:31:23;;;;;;;19.05;14.48;;;;;;;10.04;78.97;102221.91;7398775;19;20014;-66
2023/04/18 10:33:54;;;;;;;17.67;14.50;;;;;;;10.08;75.25;102228.94;7396631;19;20035;-68
2023/04/18 10:36:23;;;;;;;19.67;15.60;;;;;;;10.08;76.96;102214.94;7399091;19;20014;-67
2023/04/18 10:38:54;;;;;;;21.23;14.45;;;;;;;10.05;76.54;102214.94;7400360;19;20018;-67
2023/04/18 10:41:27;;;;;;;19.45;14.70;;;;;;;10.07;76.42;102215.81;7397118;19;20094;-67
2023/04/18 10:44:16;;;;;;;21.17;15.47;;;;;;;10.07;75.22;102215.81;7398115;19;20022;-67
2023/04/18 10:47:22;;;;;;;18.95;15.15;;;;;;;10.11;75.83;102210.59;7397141;19;20034;-67
2023/04/18 10:50:03;;;;;;;23.00;15.90;;;;;;;10.21;74.72;102222.00;7399413;19;20010;-67
2023/04/18 10:52:32;;;;;;;18.80;14.85;;;;;;;10.27;76.87;102211.53;7396281;19;20019;-67
2023/04/18 10:55:21;;;;;;;17.45;14.55;;;;;;;10.34;75.55;102208.94;7396886;19;20018;-66
2023/04/18 10:57:54;;;;;;;20.63;14.63;;;;;;;10.43;76.02;102199.34;7398904;19;20010;-67
2023/04/18 11:00:25;;;;;;;20.25;14.15;;;;;;;10.56;76.67;102194.13;7399465;19;20024;-67
2023/04/18 11:02:56;;;;;;;18.98;14.77;;;;;;;10.68;76.63;102196.78;7398949;19;20015;-67
2023/04/18 11:05:26;;;;;;;18.30;13.80;;;;;;;10.81;76.13;102194.16;7396699;19;20023;-67
2023/04/18 11:07:55;;;;;;;20.00;14.02;;;;;;;10.97;76.32;102195.00;7399528;19;20039;-66
2023/04/18 11:10:25;;;;;;;21.05;14.02;;;;;;;11.12;75.93;102188.88;7396582;19;20022;-67
2023/04/18 11:13:03;;;;;;;19.85;14.30;;;;;;;11.21;74.38;102195.00;7395833;19;20015;-67
2023/04/18 11:15:31;;;;;;;20.85;14.63;;;;;;;11.32;75.14;102196.75;7397756;19;20014;-67
2023/04/18 11:18:02;;;;;;;19.80;15.07;;;;;;;11.37;73.19;102201.13;7399009;19;20022;-67
2023/04/18 11:20:31;;;;;;;16.75;13.27;;;;;;;11.41;73.52;102191.47;7399867;19;20078;-68
2023/04/18 11:23:02;;;;;;;19.25;14.65;;;;;;;11.42;73.30;102190.59;7397511;19;20383;-67
2023/04/18 11:25:39;;;;;;;18.90;14.40;;;;;;;11.45;72.04;102187.06;7395731;19;20028;-67
2023/04/18 11:28:12;;;;;;;15.98;13.13;;;;;;;11.49;72.60;102188.84;7397572;19;20026;-68